sensor_id;sensor_type;location;lat;lon;timestamp;P1;durP1;ratioP1;P2;durP2;ratioP2
37483;SDS011;23337;52.212;9.926;2023-02-21T00:00:28;30.60;;;19.00;;
37483;SDS011;23337;52.212;9.926;2023-02-21T00:05:46;30.23;;;19.67;;
37483;SDS011;23337;52.212;9.926;2023-02-21T00:08:30;26.37;;;18.23;;
37483;SDS011;23337;52.212;9.926;2023-02-21T00:11:15;27.83;;;19.03;;
37483;SDS011;23337;52.212;9.926;2023-02-21T00:13:59;33.87;;;21.13;;
37483;SDS011;23337;52.212;9.926;2023-02-21T00:16:45;30.20;;;20.77;;
37483;SDS011;23337;52.212;9.926;2023-02-21T00:19:29;32.80;;;21.83;;
37483;SDS011;23337;52.212;9.926;2023-02-21T00:22:14;34.53;;;21.10;;
37483;SDS011;23337;52.212;9.926;2023-02-21T00:24:58;30.53;;;20.67;;
37483;SDS011;23337;52.212;9.926;2023-02-21T00:27:43;30.07;;;20.07;;
37483;SDS011;23337;52.212;9.926;2023-02-21T00:30:27;32.43;;;21.93;;
37483;SDS011;23337;52.212;9.926;2023-02-21T00:33:12;30.83;;;21.03;;
37483;SDS011;23337;52.212;9.926;2023-02-21T00:35:56;29.03;;;19.47;;
37483;SDS011;23337;52.212;9.926;2023-02-21T00:38:41;28.20;;;19.57;;
37483;SDS011;23337;52.212;9.926;2023-02-21T00:41:25;26.67;;;16.83;;
37483;SDS011;23337;52.212;9.926;2023-02-21T00:44:10;24.03;;;17.30;;
37483;SDS011;23337;52.212;9.926;2023-02-21T00:46:55;29.47;;;18.10;;
37483;SDS011;23337;52.212;9.926;2023-02-21T00:49:39;24.87;;;17.17;;
37483;SDS011;23337;52.212;9.926;2023-02-21T00:52:24;25.67;;;17.27;;
37483;SDS011;23337;52.212;9.926;2023-02-21T00:55:08;25.47;;;17.43;;
37483;SDS011;23337;52.212;9.926;2023-02-21T00:57:53;26.17;;;17.43;;
37483;SDS011;23337;52.212;9.926;2023-02-21T01:00:37;27.17;;;18.43;;
37483;SDS011;23337;52.212;9.926;2023-02-21T01:03:22;24.73;;;17.37;;
37483;SDS011;23337;52.212;9.926;2023-02-21T01:06:10;26.87;;;17.90;;
37483;SDS011;23337;52.212;9.926;2023-02-21T01:08:54;26.60;;;18.67;;
37483;SDS011;23337;52.212;9.926;2023-02-21T01:11:39;27.13;;;19.47;;
37483;SDS011;23337;52.212;9.926;2023-02-21T01:14:23;31.30;;;20.90;;
37483;SDS011;23337;52.212;9.926;2023-02-21T01:17:08;29.70;;;20.67;;
37483;SDS011;23337;52.212;9.926;2023-02-21T01:19:52;34.37;;;22.67;;
37483;SDS011;23337;52.212;9.926;2023-02-21T01:22:37;31.67;;;21.30;;
37483;SDS011;23337;52.212;9.926;2023-02-21T01:25:21;32.00;;;21.17;;
37483;SDS011;23337;52.212;9.926;2023-02-21T01:28:06;34.23;;;23.03;;
37483;SDS011;23337;52.212;9.926;2023-02-21T01:30:51;30.73;;;21.53;;
37483;SDS011;23337;52.212;9.926;2023-02-21T01:33:36;31.57;;;21.87;;
37483;SDS011;23337;52.212;9.926;2023-02-21T01:36:21;30.87;;;21.13;;
37483;SDS011;23337;52.212;9.926;2023-02-21T01:39:06;32.73;;;21.97;;
37483;SDS011;23337;52.212;9.926;2023-02-21T01:41:50;31.30;;;20.60;;
37483;SDS011;23337;52.212;9.926;2023-02-21T01:44:36;26.90;;;18.87;;
37483;SDS011;23337;52.212;9.926;2023-02-21T01:47:21;27.50;;;19.30;;
37483;SDS011;23337;52.212;9.926;2023-02-21T01:50:17;27.83;;;19.20;;
37483;SDS011;23337;52.212;9.926;2023-02-21T01:53:04;25.57;;;18.20;;
37483;SDS011;23337;52.212;9.926;2023-02-21T01:55:50;24.40;;;18.23;;
37483;SDS011;23337;52.212;9.926;2023-02-21T01:58:35;23.20;;;17.00;;
37483;SDS011;23337;52.212;9.926;2023-02-21T02:01:22;27.27;;;17.77;;
37483;SDS011;23337;52.212;9.926;2023-02-21T02:04:08;26.93;;;17.57;;
37483;SDS011;23337;52.212;9.926;2023-02-21T02:06:53;24.33;;;17.67;;
37483;SDS011;23337;52.212;9.926;2023-02-21T02:09:39;26.23;;;18.47;;
37483;SDS011;23337;52.212;9.926;2023-02-21T02:12:29;26.37;;;18.27;;
37483;SDS011;23337;52.212;9.926;2023-02-21T02:28:16;32.37;;;23.13;;
37483;SDS011;23337;52.212;9.926;2023-02-21T02:33:34;31.80;;;21.03;;
37483;SDS011;23337;52.212;9.926;2023-02-21T02:36:09;33.20;;;22.90;;
37483;SDS011;23337;52.212;9.926;2023-02-21T02:38:37;32.77;;;22.40;;
37483;SDS011;23337;52.212;9.926;2023-02-21T02:41:11;31.90;;;22.93;;
37483;SDS011;23337;52.212;9.926;2023-02-21T02:43:43;36.87;;;24.30;;
37483;SDS011;23337;52.212;9.926;2023-02-21T02:48:58;31.40;;;20.80;;
37483;SDS011;23337;52.212;9.926;2023-02-21T02:51:25;29.50;;;21.63;;
37483;SDS011;23337;52.212;9.926;2023-02-21T02:53:51;32.13;;;21.10;;
37483;SDS011;23337;52.212;9.926;2023-02-21T02:56:17;28.07;;;19.87;;
37483;SDS011;23337;52.212;9.926;2023-02-21T02:58:57;27.27;;;19.13;;
37483;SDS011;23337;52.212;9.926;2023-02-21T03:04:03;28.27;;;19.13;;
37483;SDS011;23337;52.212;9.926;2023-02-21T03:11:58;26.87;;;18.70;;
37483;SDS011;23337;52.212;9.926;2023-02-21T03:14:28;32.07;;;20.30;;
37483;SDS011;23337;52.212;9.926;2023-02-21T03:16:56;29.67;;;20.87;;
37483;SDS011;23337;52.212;9.926;2023-02-21T03:19:25;28.50;;;20.93;;
37483;SDS011;23337;52.212;9.926;2023-02-21T03:22:06;31.17;;;21.00;;
37483;SDS011;23337;52.212;9.926;2023-02-21T03:24:33;32.47;;;21.70;;
37483;SDS011;23337;52.212;9.926;2023-02-21T03:27:01;32.60;;;22.10;;
37483;SDS011;23337;52.212;9.926;2023-02-21T03:29:28;31.43;;;19.83;;
37483;SDS011;23337;52.212;9.926;2023-02-21T03:31:55;35.43;;;22.13;;
37483;SDS011;23337;52.212;9.926;2023-02-21T03:34:23;37.83;;;22.07;;
37483;SDS011;23337;52.212;9.926;2023-02-21T03:36:49;31.70;;;21.63;;
37483;SDS011;23337;52.212;9.926;2023-02-21T03:39:15;34.47;;;21.67;;
37483;SDS011;23337;52.212;9.926;2023-02-21T03:41:41;31.07;;;20.90;;
37483;SDS011;23337;52.212;9.926;2023-02-21T03:44:07;32.57;;;20.63;;
37483;SDS011;23337;52.212;9.926;2023-02-21T03:46:33;28.87;;;21.03;;
37483;SDS011;23337;52.212;9.926;2023-02-21T03:48:59;32.10;;;19.87;;
37483;SDS011;23337;52.212;9.926;2023-02-21T03:51:25;33.50;;;21.83;;
37483;SDS011;23337;52.212;9.926;2023-02-21T03:53:51;33.20;;;20.70;;
37483;SDS011;23337;52.212;9.926;2023-02-21T03:56:17;29.47;;;20.60;;
37483;SDS011;23337;52.212;9.926;2023-02-21T03:58:42;33.10;;;20.67;;
37483;SDS011;23337;52.212;9.926;2023-02-21T04:01:08;35.03;;;23.47;;
37483;SDS011;23337;52.212;9.926;2023-02-21T04:03:34;33.47;;;22.13;;
37483;SDS011;23337;52.212;9.926;2023-02-21T04:06:00;29.63;;;21.20;;
37483;SDS011;23337;52.212;9.926;2023-02-21T04:08:28;33.20;;;21.70;;
37483;SDS011;23337;52.212;9.926;2023-02-21T04:10:53;32.87;;;21.77;;
37483;SDS011;23337;52.212;9.926;2023-02-21T04:13:19;31.27;;;21.07;;
37483;SDS011;23337;52.212;9.926;2023-02-21T04:15:47;35.57;;;25.00;;
37483;SDS011;23337;52.212;9.926;2023-02-21T04:18:13;32.30;;;21.90;;
37483;SDS011;23337;52.212;9.926;2023-02-21T04:20:39;32.90;;;21.33;;
37483;SDS011;23337;52.212;9.926;2023-02-21T04:23:05;42.57;;;25.43;;
37483;SDS011;23337;52.212;9.926;2023-02-21T04:25:31;38.80;;;25.10;;
37483;SDS011;23337;52.212;9.926;2023-02-21T04:27:57;36.00;;;24.77;;
37483;SDS011;23337;52.212;9.926;2023-02-21T04:30:23;37.07;;;24.07;;
37483;SDS011;23337;52.212;9.926;2023-02-21T04:32:49;41.70;;;24.77;;
37483;SDS011;23337;52.212;9.926;2023-02-21T04:35:15;38.27;;;25.73;;
37483;SDS011;23337;52.212;9.926;2023-02-21T04:37:40;41.20;;;26.63;;
37483;SDS011;23337;52.212;9.926;2023-02-21T04:40:09;38.53;;;24.97;;
37483;SDS011;23337;52.212;9.926;2023-02-21T04:42:35;43.50;;;25.80;;
37483;SDS011;23337;52.212;9.926;2023-02-21T04:45:00;41.80;;;26.30;;
37483;SDS011;23337;52.212;9.926;2023-02-21T04:47:27;45.80;;;25.87;;
37483;SDS011;23337;52.212;9.926;2023-02-21T04:49:53;41.47;;;25.53;;
37483;SDS011;23337;52.212;9.926;2023-02-21T04:52:18;41.70;;;27.30;;
37483;SDS011;23337;52.212;9.926;2023-02-21T04:54:45;45.07;;;26.37;;
37483;SDS011;23337;52.212;9.926;2023-02-21T04:57:11;42.00;;;26.17;;
37483;SDS011;23337;52.212;9.926;2023-02-21T04:59:37;41.47;;;26.77;;
37483;SDS011;23337;52.212;9.926;2023-02-21T05:02:03;43.50;;;28.00;;
37483;SDS011;23337;52.212;9.926;2023-02-21T05:04:30;39.77;;;25.13;;
37483;SDS011;23337;52.212;9.926;2023-02-21T05:06:57;41.83;;;26.30;;
37483;SDS011;23337;52.212;9.926;2023-02-21T05:09:23;43.43;;;26.03;;
37483;SDS011;23337;52.212;9.926;2023-02-21T05:11:49;42.40;;;26.67;;
37483;SDS011;23337;52.212;9.926;2023-02-21T05:14:15;39.90;;;24.93;;
37483;SDS011;23337;52.212;9.926;2023-02-21T05:16:42;36.57;;;24.87;;
37483;SDS011;23337;52.212;9.926;2023-02-21T05:19:08;41.50;;;26.07;;
37483;SDS011;23337;52.212;9.926;2023-02-21T05:21:35;38.60;;;23.77;;
37483;SDS011;23337;52.212;9.926;2023-02-21T05:24:02;39.30;;;24.80;;
37483;SDS011;23337;52.212;9.926;2023-02-21T05:26:31;39.30;;;25.70;;
37483;SDS011;23337;52.212;9.926;2023-02-21T05:28:59;34.27;;;22.03;;
37483;SDS011;23337;52.212;9.926;2023-02-21T05:31:26;41.17;;;23.70;;
37483;SDS011;23337;52.212;9.926;2023-02-21T05:33:52;35.20;;;22.27;;
37483;SDS011;23337;52.212;9.926;2023-02-21T05:36:18;36.07;;;23.70;;
37483;SDS011;23337;52.212;9.926;2023-02-21T05:38:48;38.67;;;23.70;;
37483;SDS011;23337;52.212;9.926;2023-02-21T05:41:14;36.67;;;23.93;;
37483;SDS011;23337;52.212;9.926;2023-02-21T05:43:44;34.43;;;22.67;;
37483;SDS011;23337;52.212;9.926;2023-02-21T05:46:24;31.73;;;22.57;;
37483;SDS011;23337;52.212;9.926;2023-02-21T05:48:50;31.50;;;21.30;;
37483;SDS011;23337;52.212;9.926;2023-02-21T05:51:17;32.77;;;21.07;;
37483;SDS011;23337;52.212;9.926;2023-02-21T05:53:43;28.83;;;18.30;;
37483;SDS011;23337;52.212;9.926;2023-02-21T05:56:09;30.50;;;19.80;;
37483;SDS011;23337;52.212;9.926;2023-02-21T05:58:35;26.97;;;18.43;;
37483;SDS011;23337;52.212;9.926;2023-02-21T06:01:01;29.00;;;18.83;;
37483;SDS011;23337;52.212;9.926;2023-02-21T06:03:28;27.33;;;18.07;;
37483;SDS011;23337;52.212;9.926;2023-02-21T06:05:54;32.27;;;19.43;;
37483;SDS011;23337;52.212;9.926;2023-02-21T06:08:19;33.20;;;19.97;;
37483;SDS011;23337;52.212;9.926;2023-02-21T06:10:45;30.07;;;19.53;;
37483;SDS011;23337;52.212;9.926;2023-02-21T06:13:11;29.87;;;18.70;;
37483;SDS011;23337;52.212;9.926;2023-02-21T06:15:37;30.07;;;19.40;;
37483;SDS011;23337;52.212;9.926;2023-02-21T06:18:03;28.30;;;19.20;;
37483;SDS011;23337;52.212;9.926;2023-02-21T06:20:29;30.00;;;18.80;;
37483;SDS011;23337;52.212;9.926;2023-02-21T06:22:55;28.93;;;18.37;;
37483;SDS011;23337;52.212;9.926;2023-02-21T06:25:21;27.93;;;17.63;;
37483;SDS011;23337;52.212;9.926;2023-02-21T06:27:48;26.57;;;17.37;;
37483;SDS011;23337;52.212;9.926;2023-02-21T06:30:14;26.17;;;18.37;;
37483;SDS011;23337;52.212;9.926;2023-02-21T06:32:40;25.43;;;16.93;;
37483;SDS011;23337;52.212;9.926;2023-02-21T06:35:06;28.07;;;18.77;;
37483;SDS011;23337;52.212;9.926;2023-02-21T06:37:32;23.93;;;16.37;;
37483;SDS011;23337;52.212;9.926;2023-02-21T06:39:58;24.73;;;16.90;;
37483;SDS011;23337;52.212;9.926;2023-02-21T06:42:24;24.00;;;15.93;;
37483;SDS011;23337;52.212;9.926;2023-02-21T06:44:50;30.03;;;18.67;;
37483;SDS011;23337;52.212;9.926;2023-02-21T06:47:16;27.33;;;17.73;;
37483;SDS011;23337;52.212;9.926;2023-02-21T06:49:42;27.67;;;18.53;;
37483;SDS011;23337;52.212;9.926;2023-02-21T06:52:08;25.57;;;17.87;;
37483;SDS011;23337;52.212;9.926;2023-02-21T06:54:35;27.83;;;17.83;;
37483;SDS011;23337;52.212;9.926;2023-02-21T06:57:01;24.83;;;17.40;;
37483;SDS011;23337;52.212;9.926;2023-02-21T06:59:27;25.70;;;17.67;;
37483;SDS011;23337;52.212;9.926;2023-02-21T07:01:54;26.77;;;17.43;;
37483;SDS011;23337;52.212;9.926;2023-02-21T07:04:20;26.07;;;17.70;;
37483;SDS011;23337;52.212;9.926;2023-02-21T07:06:46;30.03;;;17.07;;
37483;SDS011;23337;52.212;9.926;2023-02-21T07:09:12;25.37;;;16.67;;
37483;SDS011;23337;52.212;9.926;2023-02-21T07:11:38;30.33;;;18.20;;
37483;SDS011;23337;52.212;9.926;2023-02-21T07:14:05;25.10;;;17.10;;
37483;SDS011;23337;52.212;9.926;2023-02-21T07:16:31;26.07;;;16.57;;
37483;SDS011;23337;52.212;9.926;2023-02-21T07:18:57;23.50;;;16.07;;
37483;SDS011;23337;52.212;9.926;2023-02-21T07:21:24;29.10;;;17.90;;
37483;SDS011;23337;52.212;9.926;2023-02-21T07:23:50;24.83;;;16.07;;
37483;SDS011;23337;52.212;9.926;2023-02-21T07:26:16;31.43;;;17.77;;
37483;SDS011;23337;52.212;9.926;2023-02-21T07:28:42;29.10;;;18.77;;
37483;SDS011;23337;52.212;9.926;2023-02-21T07:31:08;28.90;;;18.17;;
37483;SDS011;23337;52.212;9.926;2023-02-21T07:33:35;26.83;;;17.00;;
37483;SDS011;23337;52.212;9.926;2023-02-21T07:36:01;28.37;;;17.83;;
37483;SDS011;23337;52.212;9.926;2023-02-21T07:38:27;32.40;;;19.80;;
37483;SDS011;23337;52.212;9.926;2023-02-21T07:40:54;30.77;;;18.80;;
37483;SDS011;23337;52.212;9.926;2023-02-21T07:43:20;31.97;;;19.43;;
37483;SDS011;23337;52.212;9.926;2023-02-21T07:45:47;32.03;;;19.47;;
37483;SDS011;23337;52.212;9.926;2023-02-21T07:48:13;35.03;;;21.33;;
37483;SDS011;23337;52.212;9.926;2023-02-21T07:50:39;35.30;;;21.57;;
37483;SDS011;23337;52.212;9.926;2023-02-21T07:53:05;33.97;;;21.90;;
37483;SDS011;23337;52.212;9.926;2023-02-21T07:55:31;36.80;;;20.67;;
37483;SDS011;23337;52.212;9.926;2023-02-21T07:57:57;35.13;;;22.67;;
37483;SDS011;23337;52.212;9.926;2023-02-21T08:00:23;41.70;;;24.90;;
37483;SDS011;23337;52.212;9.926;2023-02-21T08:02:50;37.30;;;24.27;;
37483;SDS011;23337;52.212;9.926;2023-02-21T08:05:17;36.37;;;23.47;;
37483;SDS011;23337;52.212;9.926;2023-02-21T08:07:43;40.10;;;23.33;;
37483;SDS011;23337;52.212;9.926;2023-02-21T08:10:09;38.63;;;23.43;;
37483;SDS011;23337;52.212;9.926;2023-02-21T08:12:36;36.13;;;21.67;;
37483;SDS011;23337;52.212;9.926;2023-02-21T08:15:02;35.90;;;22.70;;
37483;SDS011;23337;52.212;9.926;2023-02-21T08:17:29;36.50;;;22.60;;
37483;SDS011;23337;52.212;9.926;2023-02-21T08:19:55;36.17;;;21.03;;
37483;SDS011;23337;52.212;9.926;2023-02-21T08:22:21;38.23;;;23.20;;
37483;SDS011;23337;52.212;9.926;2023-02-21T08:24:50;38.17;;;22.13;;
37483;SDS011;23337;52.212;9.926;2023-02-21T08:27:16;35.00;;;21.63;;
37483;SDS011;23337;52.212;9.926;2023-02-21T08:29:42;34.00;;;21.03;;
37483;SDS011;23337;52.212;9.926;2023-02-21T08:32:08;31.93;;;20.47;;
37483;SDS011;23337;52.212;9.926;2023-02-21T08:34:34;29.10;;;17.23;;
37483;SDS011;23337;52.212;9.926;2023-02-21T08:37:00;32.33;;;19.50;;
37483;SDS011;23337;52.212;9.926;2023-02-21T08:39:29;32.13;;;19.93;;
37483;SDS011;23337;52.212;9.926;2023-02-21T08:41:55;36.72;;;24.50;;
37483;SDS011;23337;52.212;9.926;2023-02-21T08:44:21;31.40;;;20.87;;
37483;SDS011;23337;52.212;9.926;2023-02-21T08:46:47;29.20;;;19.70;;
37483;SDS011;23337;52.212;9.926;2023-02-21T08:49:13;33.97;;;20.13;;
37483;SDS011;23337;52.212;9.926;2023-02-21T08:51:39;34.13;;;20.27;;
37483;SDS011;23337;52.212;9.926;2023-02-21T08:54:06;35.50;;;21.17;;
37483;SDS011;23337;52.212;9.926;2023-02-21T08:56:32;33.00;;;20.60;;
37483;SDS011;23337;52.212;9.926;2023-02-21T08:58:58;34.97;;;19.80;;
37483;SDS011;23337;52.212;9.926;2023-02-21T09:01:29;30.47;;;18.43;;
37483;SDS011;23337;52.212;9.926;2023-02-21T09:03:56;31.40;;;19.90;;
37483;SDS011;23337;52.212;9.926;2023-02-21T09:06:21;31.27;;;18.73;;
37483;SDS011;23337;52.212;9.926;2023-02-21T09:08:47;32.27;;;19.17;;
37483;SDS011;23337;52.212;9.926;2023-02-21T09:11:13;30.90;;;18.97;;
37483;SDS011;23337;52.212;9.926;2023-02-21T09:13:39;28.03;;;17.80;;
37483;SDS011;23337;52.212;9.926;2023-02-21T09:16:06;25.57;;;18.07;;
37483;SDS011;23337;52.212;9.926;2023-02-21T09:18:32;29.43;;;17.17;;
37483;SDS011;23337;52.212;9.926;2023-02-21T09:20:58;25.50;;;17.33;;
37483;SDS011;23337;52.212;9.926;2023-02-21T09:23:25;23.03;;;15.47;;
37483;SDS011;23337;52.212;9.926;2023-02-21T09:25:51;21.37;;;13.90;;
37483;SDS011;23337;52.212;9.926;2023-02-21T09:28:17;24.73;;;16.37;;
37483;SDS011;23337;52.212;9.926;2023-02-21T09:30:43;23.00;;;15.87;;
37483;SDS011;23337;52.212;9.926;2023-02-21T09:33:10;23.53;;;16.53;;
37483;SDS011;23337;52.212;9.926;2023-02-21T09:35:36;24.10;;;15.57;;
37483;SDS011;23337;52.212;9.926;2023-02-21T09:38:02;27.77;;;17.40;;
37483;SDS011;23337;52.212;9.926;2023-02-21T09:40:50;31.37;;;18.57;;
37483;SDS011;23337;52.212;9.926;2023-02-21T09:43:27;33.03;;;20.03;;
37483;SDS011;23337;52.212;9.926;2023-02-21T09:45:57;33.63;;;19.53;;
37483;SDS011;23337;52.212;9.926;2023-02-21T09:48:23;31.03;;;19.53;;
37483;SDS011;23337;52.212;9.926;2023-02-21T09:50:51;32.83;;;20.53;;
37483;SDS011;23337;52.212;9.926;2023-02-21T09:53:19;32.37;;;21.17;;
37483;SDS011;23337;52.212;9.926;2023-02-21T09:55:45;32.93;;;20.90;;
37483;SDS011;23337;52.212;9.926;2023-02-21T09:58:14;33.20;;;19.50;;
37483;SDS011;23337;52.212;9.926;2023-02-21T10:00:40;33.27;;;21.43;;
37483;SDS011;23337;52.212;9.926;2023-02-21T10:05:37;37.03;;;22.43;;
37483;SDS011;23337;52.212;9.926;2023-02-21T10:08:18;37.23;;;22.97;;
37483;SDS011;23337;52.212;9.926;2023-02-21T10:10:48;35.90;;;21.23;;
37483;SDS011;23337;52.212;9.926;2023-02-21T10:15:44;32.97;;;20.60;;
37483;SDS011;23337;52.212;9.926;2023-02-21T10:18:31;31.17;;;20.17;;
37483;SDS011;23337;52.212;9.926;2023-02-21T10:21:00;32.33;;;21.20;;
37483;SDS011;23337;52.212;9.926;2023-02-21T10:23:32;30.80;;;18.50;;
37483;SDS011;23337;52.212;9.926;2023-02-21T10:26:00;32.73;;;21.10;;
37483;SDS011;23337;52.212;9.926;2023-02-21T10:28:29;29.70;;;18.53;;
37483;SDS011;23337;52.212;9.926;2023-02-21T10:31:00;29.47;;;18.70;;
37483;SDS011;23337;52.212;9.926;2023-02-21T10:33:26;28.67;;;19.50;;
37483;SDS011;23337;52.212;9.926;2023-02-21T10:35:53;26.37;;;17.37;;
37483;SDS011;23337;52.212;9.926;2023-02-21T10:38:22;26.70;;;17.90;;
37483;SDS011;23337;52.212;9.926;2023-02-21T10:40:50;30.60;;;18.70;;
37483;SDS011;23337;52.212;9.926;2023-02-21T10:45:50;31.20;;;18.77;;
37483;SDS011;23337;52.212;9.926;2023-02-21T10:48:19;26.63;;;18.57;;
37483;SDS011;23337;52.212;9.926;2023-02-21T10:51:03;30.60;;;19.30;;
37483;SDS011;23337;52.212;9.926;2023-02-21T10:53:36;27.03;;;17.73;;
37483;SDS011;23337;52.212;9.926;2023-02-21T10:58:31;22.63;;;16.60;;
37483;SDS011;23337;52.212;9.926;2023-02-21T11:00:57;25.53;;;18.23;;
37483;SDS011;23337;52.212;9.926;2023-02-21T11:03:35;25.27;;;17.57;;
37483;SDS011;23337;52.212;9.926;2023-02-21T11:06:01;24.40;;;16.73;;
37483;SDS011;23337;52.212;9.926;2023-02-21T11:08:37;26.90;;;17.60;;
37483;SDS011;23337;52.212;9.926;2023-02-21T11:11:03;24.77;;;17.20;;
37483;SDS011;23337;52.212;9.926;2023-02-21T11:13:29;24.27;;;16.47;;
37483;SDS011;23337;52.212;9.926;2023-02-21T11:16:06;21.80;;;15.90;;
37483;SDS011;23337;52.212;9.926;2023-02-21T11:18:33;22.83;;;16.87;;
37483;SDS011;23337;52.212;9.926;2023-02-21T11:21:09;21.93;;;14.23;;
37483;SDS011;23337;52.212;9.926;2023-02-21T11:23:35;20.97;;;14.73;;
37483;SDS011;23337;52.212;9.926;2023-02-21T11:26:10;21.10;;;15.53;;
37483;SDS011;23337;52.212;9.926;2023-02-21T11:28:44;24.67;;;16.97;;
37483;SDS011;23337;52.212;9.926;2023-02-21T11:33:41;22.10;;;15.20;;
37483;SDS011;23337;52.212;9.926;2023-02-21T11:36:11;23.00;;;15.97;;
37483;SDS011;23337;52.212;9.926;2023-02-21T11:38:39;19.40;;;13.43;;
37483;SDS011;23337;52.212;9.926;2023-02-21T11:41:21;18.50;;;13.37;;
37483;SDS011;23337;52.212;9.926;2023-02-21T11:43:48;18.27;;;13.37;;
37483;SDS011;23337;52.212;9.926;2023-02-21T11:46:20;19.33;;;12.70;;
37483;SDS011;23337;52.212;9.926;2023-02-21T11:51:55;18.90;;;12.53;;
37483;SDS011;23337;52.212;9.926;2023-02-21T11:54:23;18.13;;;12.97;;
37483;SDS011;23337;52.212;9.926;2023-02-21T11:56:53;17.93;;;13.17;;
37483;SDS011;23337;52.212;9.926;2023-02-21T11:59:27;16.03;;;12.23;;
37483;SDS011;23337;52.212;9.926;2023-02-21T12:07:28;17.77;;;12.97;;
37483;SDS011;23337;52.212;9.926;2023-02-21T12:10:06;14.13;;;11.23;;
37483;SDS011;23337;52.212;9.926;2023-02-21T12:15:17;19.30;;;13.73;;
37483;SDS011;23337;52.212;9.926;2023-02-21T12:17:48;18.73;;;13.77;;
37483;SDS011;23337;52.212;9.926;2023-02-21T12:28:08;18.80;;;14.13;;
37483;SDS011;23337;52.212;9.926;2023-02-21T12:33:09;23.80;;;14.27;;
37483;SDS011;23337;52.212;9.926;2023-02-21T12:38:39;24.07;;;14.33;;
37483;SDS011;23337;52.212;9.926;2023-02-21T12:41:16;18.83;;;14.33;;
37483;SDS011;23337;52.212;9.926;2023-02-21T12:48:50;24.10;;;15.57;;
37483;SDS011;23337;52.212;9.926;2023-02-21T12:51:20;14.00;;;11.33;;
37483;SDS011;23337;52.212;9.926;2023-02-21T12:53:49;14.97;;;11.03;;
37483;SDS011;23337;52.212;9.926;2023-02-21T12:58:48;13.03;;;10.13;;
37483;SDS011;23337;52.212;9.926;2023-02-21T13:08:55;15.93;;;10.13;;
37483;SDS011;23337;52.212;9.926;2023-02-21T13:11:47;12.60;;;10.40;;
37483;SDS011;23337;52.212;9.926;2023-02-21T13:14:12;13.90;;;10.27;;
37483;SDS011;23337;52.212;9.926;2023-02-21T13:16:39;14.93;;;10.83;;
37483;SDS011;23337;52.212;9.926;2023-02-21T13:19:06;12.47;;;10.37;;
37483;SDS011;23337;52.212;9.926;2023-02-21T13:29:33;12.27;;;9.50;;
37483;SDS011;23337;52.212;9.926;2023-02-21T13:32:05;12.20;;;10.37;;
37483;SDS011;23337;52.212;9.926;2023-02-21T13:34:36;11.73;;;9.67;;
37483;SDS011;23337;52.212;9.926;2023-02-21T13:37:06;12.23;;;9.90;;
37483;SDS011;23337;52.212;9.926;2023-02-21T13:39:33;13.17;;;9.73;;
37483;SDS011;23337;52.212;9.926;2023-02-21T13:42:07;12.53;;;9.60;;
37483;SDS011;23337;52.212;9.926;2023-02-21T13:44:50;11.47;;;8.83;;
37483;SDS011;23337;52.212;9.926;2023-02-21T13:47:18;11.63;;;8.57;;
37483;SDS011;23337;52.212;9.926;2023-02-21T13:49:51;12.30;;;10.07;;
37483;SDS011;23337;52.212;9.926;2023-02-21T13:57:31;14.07;;;11.57;;
37483;SDS011;23337;52.212;9.926;2023-02-21T13:59:58;12.20;;;10.07;;
37483;SDS011;23337;52.212;9.926;2023-02-21T14:02:27;12.93;;;10.50;;
37483;SDS011;23337;52.212;9.926;2023-02-21T14:05:01;15.20;;;11.33;;
37483;SDS011;23337;52.212;9.926;2023-02-21T14:07:38;14.20;;;10.70;;
37483;SDS011;23337;52.212;9.926;2023-02-21T14:10:11;18.23;;;11.90;;
37483;SDS011;23337;52.212;9.926;2023-02-21T14:12:42;17.43;;;11.83;;
37483;SDS011;23337;52.212;9.926;2023-02-21T14:15:08;17.73;;;11.60;;
37483;SDS011;23337;52.212;9.926;2023-02-21T14:17:34;16.00;;;12.40;;
37483;SDS011;23337;52.212;9.926;2023-02-21T14:20:01;16.90;;;12.17;;
37483;SDS011;23337;52.212;9.926;2023-02-21T14:22:30;18.23;;;11.83;;
37483;SDS011;23337;52.212;9.926;2023-02-21T14:25:04;17.07;;;12.43;;
37483;SDS011;23337;52.212;9.926;2023-02-21T14:27:31;17.50;;;12.27;;
37483;SDS011;23337;52.212;9.926;2023-02-21T14:32:30;17.30;;;12.03;;
37483;SDS011;23337;52.212;9.926;2023-02-21T14:34:57;15.87;;;12.33;;
37483;SDS011;23337;52.212;9.926;2023-02-21T14:45:33;27.53;;;16.73;;
37483;SDS011;23337;52.212;9.926;2023-02-21T14:53:05;22.17;;;14.97;;
37483;SDS011;23337;52.212;9.926;2023-02-21T14:55:54;17.27;;;13.37;;
37483;SDS011;23337;52.212;9.926;2023-02-21T15:03:53;19.87;;;14.10;;
37483;SDS011;23337;52.212;9.926;2023-02-21T15:06:24;19.03;;;13.90;;
37483;SDS011;23337;52.212;9.926;2023-02-21T15:08:51;21.20;;;13.97;;
37483;SDS011;23337;52.212;9.926;2023-02-21T15:11:23;20.00;;;14.93;;
37483;SDS011;23337;52.212;9.926;2023-02-21T15:16:35;20.50;;;14.50;;
37483;SDS011;23337;52.212;9.926;2023-02-21T15:19:02;19.37;;;14.27;;
37483;SDS011;23337;52.212;9.926;2023-02-21T15:21:28;19.40;;;14.93;;
37483;SDS011;23337;52.212;9.926;2023-02-21T15:24:27;22.37;;;14.80;;
37483;SDS011;23337;52.212;9.926;2023-02-21T15:26:47;20.97;;;15.10;;
37483;SDS011;23337;52.212;9.926;2023-02-21T15:29:14;19.27;;;14.40;;
37483;SDS011;23337;52.212;9.926;2023-02-21T15:31:41;24.13;;;16.60;;
37483;SDS011;23337;52.212;9.926;2023-02-21T15:34:18;23.83;;;16.90;;
37483;SDS011;23337;52.212;9.926;2023-02-21T15:36:45;23.77;;;15.83;;
37483;SDS011;23337;52.212;9.926;2023-02-21T15:39:23;28.57;;;17.97;;
37483;SDS011;23337;52.212;9.926;2023-02-21T15:41:51;25.83;;;18.27;;
37483;SDS011;23337;52.212;9.926;2023-02-21T15:44:25;23.17;;;16.37;;
37483;SDS011;23337;52.212;9.926;2023-02-21T15:49:27;26.40;;;15.20;;
37483;SDS011;23337;52.212;9.926;2023-02-21T15:51:54;19.87;;;15.43;;
37483;SDS011;23337;52.212;9.926;2023-02-21T15:54:27;22.33;;;14.87;;
37483;SDS011;23337;52.212;9.926;2023-02-21T15:57:02;22.43;;;15.27;;
37483;SDS011;23337;52.212;9.926;2023-02-21T15:59:28;20.17;;;12.30;;
37483;SDS011;23337;52.212;9.926;2023-02-21T16:04:39;19.77;;;14.83;;
37483;SDS011;23337;52.212;9.926;2023-02-21T16:07:06;19.67;;;14.27;;
37483;SDS011;23337;52.212;9.926;2023-02-21T16:09:38;23.30;;;14.57;;
37483;SDS011;23337;52.212;9.926;2023-02-21T16:12:17;22.00;;;14.77;;
37483;SDS011;23337;52.212;9.926;2023-02-21T16:14:57;39.33;;;27.27;;
37483;SDS011;23337;52.212;9.926;2023-02-21T16:20:00;30.57;;;16.10;;
37483;SDS011;23337;52.212;9.926;2023-02-21T16:22:34;26.10;;;16.40;;
37483;SDS011;23337;52.212;9.926;2023-02-21T16:25:04;25.80;;;16.50;;
37483;SDS011;23337;52.212;9.926;2023-02-21T16:27:31;24.13;;;16.57;;
37483;SDS011;23337;52.212;9.926;2023-02-21T16:29:57;24.30;;;15.90;;
37483;SDS011;23337;52.212;9.926;2023-02-21T16:32:23;23.87;;;16.30;;
37483;SDS011;23337;52.212;9.926;2023-02-21T16:34:49;26.57;;;16.60;;
37483;SDS011;23337;52.212;9.926;2023-02-21T16:37:19;25.90;;;15.50;;
37483;SDS011;23337;52.212;9.926;2023-02-21T16:39:45;26.60;;;17.00;;
37483;SDS011;23337;52.212;9.926;2023-02-21T16:42:11;27.43;;;17.17;;
37483;SDS011;23337;52.212;9.926;2023-02-21T16:44:37;28.50;;;16.77;;
37483;SDS011;23337;52.212;9.926;2023-02-21T16:47:03;27.33;;;16.83;;